sensor_id;sensor_type;location;lat;lon;timestamp;P1;durP1;ratioP1;P2;durP2;ratioP2
7150;SDS011;3617;48.836;9.172;2022-07-29T00:00:03;4.93;;;4.40;;
7150;SDS011;3617;48.836;9.172;2022-07-29T00:02:30;5.07;;;4.47;;
7150;SDS011;3617;48.836;9.172;2022-07-29T00:04:57;5.50;;;4.70;;
7150;SDS011;3617;48.836;9.172;2022-07-29T00:07:23;4.40;;;4.00;;
7150;SDS011;3617;48.836;9.172;2022-07-29T00:09:49;5.17;;;4.40;;
7150;SDS011;3617;48.836;9.172;2022-07-29T00:12:15;5.13;;;4.07;;
7150;SDS011;3617;48.836;9.172;2022-07-29T00:14:41;6.67;;;4.40;;
7150;SDS011;3617;48.836;9.172;2022-07-29T00:17:07;5.43;;;4.90;;
7150;SDS011;3617;48.836;9.172;2022-07-29T00:19:33;8.37;;;5.20;;
7150;SDS011;3617;48.836;9.172;2022-07-29T00:22:00;8.23;;;5.70;;
7150;SDS011;3617;48.836;9.172;2022-07-29T00:24:26;5.97;;;5.27;;
7150;SDS011;3617;48.836;9.172;2022-07-29T00:26:52;8.83;;;5.50;;
7150;SDS011;3617;48.836;9.172;2022-07-29T00:29:18;6.93;;;5.40;;
7150;SDS011;3617;48.836;9.172;2022-07-29T00:31:44;5.40;;;4.77;;
7150;SDS011;3617;48.836;9.172;2022-07-29T00:34:10;7.00;;;4.70;;
7150;SDS011;3617;48.836;9.172;2022-07-29T00:36:55;7.50;;;5.50;;
7150;SDS011;3617;48.836;9.172;2022-07-29T00:39:22;7.30;;;5.53;;
7150;SDS011;3617;48.836;9.172;2022-07-29T00:41:48;8.47;;;5.70;;
7150;SDS011;3617;48.836;9.172;2022-07-29T00:44:14;7.50;;;5.63;;
7150;SDS011;3617;48.836;9.172;2022-07-29T00:46:40;6.23;;;5.20;;
7150;SDS011;3617;48.836;9.172;2022-07-29T00:49:06;6.60;;;5.50;;
7150;SDS011;3617;48.836;9.172;2022-07-29T00:51:32;8.37;;;5.07;;
7150;SDS011;3617;48.836;9.172;2022-07-29T00:53:59;5.90;;;5.13;;
7150;SDS011;3617;48.836;9.172;2022-07-29T00:56:25;5.87;;;5.00;;
7150;SDS011;3617;48.836;9.172;2022-07-29T00:58:51;5.37;;;4.87;;
7150;SDS011;3617;48.836;9.172;2022-07-29T01:01:17;6.53;;;5.00;;
7150;SDS011;3617;48.836;9.172;2022-07-29T01:03:43;6.70;;;5.07;;
7150;SDS011;3617;48.836;9.172;2022-07-29T01:06:09;6.53;;;4.80;;
7150;SDS011;3617;48.836;9.172;2022-07-29T01:08:35;7.20;;;5.10;;
7150;SDS011;3617;48.836;9.172;2022-07-29T01:11:02;6.10;;;4.90;;
7150;SDS011;3617;48.836;9.172;2022-07-29T01:13:29;6.73;;;5.53;;
7150;SDS011;3617;48.836;9.172;2022-07-29T01:15:58;6.60;;;4.60;;
7150;SDS011;3617;48.836;9.172;2022-07-29T01:18:34;6.97;;;5.30;;
7150;SDS011;3617;48.836;9.172;2022-07-29T01:21:07;5.93;;;4.20;;
7150;SDS011;3617;48.836;9.172;2022-07-29T01:31:14;7.53;;;4.67;;
7150;SDS011;3617;48.836;9.172;2022-07-29T01:33:43;4.77;;;4.27;;
7150;SDS011;3617;48.836;9.172;2022-07-29T01:36:14;4.87;;;4.10;;
7150;SDS011;3617;48.836;9.172;2022-07-29T01:38:43;4.53;;;4.13;;
7150;SDS011;3617;48.836;9.172;2022-07-29T01:41:13;5.73;;;4.80;;
7150;SDS011;3617;48.836;9.172;2022-07-29T01:44:02;7.33;;;5.07;;
7150;SDS011;3617;48.836;9.172;2022-07-29T01:46:37;5.17;;;4.40;;
7150;SDS011;3617;48.836;9.172;2022-07-29T01:49:17;5.77;;;5.17;;
7150;SDS011;3617;48.836;9.172;2022-07-29T01:51:50;5.23;;;4.70;;
7150;SDS011;3617;48.836;9.172;2022-07-29T01:56:43;6.30;;;5.00;;
7150;SDS011;3617;48.836;9.172;2022-07-29T01:59:10;6.20;;;4.93;;
7150;SDS011;3617;48.836;9.172;2022-07-29T02:01:37;7.27;;;5.23;;
7150;SDS011;3617;48.836;9.172;2022-07-29T02:04:05;5.33;;;4.73;;
7150;SDS011;3617;48.836;9.172;2022-07-29T02:06:32;7.87;;;5.33;;
7150;SDS011;3617;48.836;9.172;2022-07-29T02:08:59;6.93;;;4.80;;
7150;SDS011;3617;48.836;9.172;2022-07-29T02:11:26;5.47;;;4.37;;
7150;SDS011;3617;48.836;9.172;2022-07-29T02:13:52;5.57;;;4.60;;
7150;SDS011;3617;48.836;9.172;2022-07-29T02:16:19;9.07;;;4.43;;
7150;SDS011;3617;48.836;9.172;2022-07-29T02:18:46;4.70;;;3.90;;
7150;SDS011;3617;48.836;9.172;2022-07-29T02:21:13;4.57;;;4.17;;
7150;SDS011;3617;48.836;9.172;2022-07-29T02:23:43;4.60;;;4.17;;
7150;SDS011;3617;48.836;9.172;2022-07-29T02:26:09;5.70;;;4.33;;
7150;SDS011;3617;48.836;9.172;2022-07-29T02:28:35;6.77;;;4.60;;
7150;SDS011;3617;48.836;9.172;2022-07-29T02:31:02;4.83;;;4.33;;
7150;SDS011;3617;48.836;9.172;2022-07-29T02:33:28;6.70;;;4.97;;
7150;SDS011;3617;48.836;9.172;2022-07-29T02:35:56;7.33;;;4.73;;
7150;SDS011;3617;48.836;9.172;2022-07-29T02:38:22;6.60;;;5.10;;
7150;SDS011;3617;48.836;9.172;2022-07-29T02:41:29;6.57;;;4.83;;
7150;SDS011;3617;48.836;9.172;2022-07-29T02:43:57;8.33;;;5.30;;
7150;SDS011;3617;48.836;9.172;2022-07-29T02:46:26;6.53;;;4.80;;
7150;SDS011;3617;48.836;9.172;2022-07-29T02:48:58;6.63;;;5.20;;
7150;SDS011;3617;48.836;9.172;2022-07-29T02:51:25;5.80;;;4.43;;
7150;SDS011;3617;48.836;9.172;2022-07-29T02:53:54;5.53;;;4.90;;
7150;SDS011;3617;48.836;9.172;2022-07-29T02:56:27;5.97;;;4.93;;
7150;SDS011;3617;48.836;9.172;2022-07-29T02:58:54;7.67;;;5.67;;
7150;SDS011;3617;48.836;9.172;2022-07-29T03:01:24;6.43;;;5.50;;
7150;SDS011;3617;48.836;9.172;2022-07-29T03:03:53;5.73;;;5.20;;
7150;SDS011;3617;48.836;9.172;2022-07-29T03:06:21;9.70;;;5.87;;
7150;SDS011;3617;48.836;9.172;2022-07-29T03:08:48;8.17;;;5.87;;
7150;SDS011;3617;48.836;9.172;2022-07-29T03:11:14;6.97;;;6.27;;
7150;SDS011;3617;48.836;9.172;2022-07-29T03:13:41;8.37;;;6.87;;
7150;SDS011;3617;48.836;9.172;2022-07-29T03:16:07;6.83;;;6.13;;
7150;SDS011;3617;48.836;9.172;2022-07-29T03:18:33;8.43;;;6.97;;
7150;SDS011;3617;48.836;9.172;2022-07-29T03:20:59;8.50;;;6.73;;
7150;SDS011;3617;48.836;9.172;2022-07-29T03:23:25;6.90;;;6.20;;
7150;SDS011;3617;48.836;9.172;2022-07-29T03:25:52;6.97;;;5.97;;
7150;SDS011;3617;48.836;9.172;2022-07-29T03:28:19;7.40;;;6.13;;
7150;SDS011;3617;48.836;9.172;2022-07-29T03:30:45;7.90;;;6.60;;
7150;SDS011;3617;48.836;9.172;2022-07-29T03:33:11;8.53;;;6.33;;
7150;SDS011;3617;48.836;9.172;2022-07-29T03:35:37;10.90;;;6.60;;
7150;SDS011;3617;48.836;9.172;2022-07-29T03:38:03;7.83;;;6.30;;
7150;SDS011;3617;48.836;9.172;2022-07-29T03:40:33;7.63;;;6.77;;
7150;SDS011;3617;48.836;9.172;2022-07-29T03:43:01;7.43;;;6.13;;
7150;SDS011;3617;48.836;9.172;2022-07-29T03:45:28;6.73;;;6.03;;
7150;SDS011;3617;48.836;9.172;2022-07-29T03:47:55;6.93;;;5.73;;
7150;SDS011;3617;48.836;9.172;2022-07-29T03:50:22;8.87;;;6.20;;
7150;SDS011;3617;48.836;9.172;2022-07-29T03:52:48;7.90;;;6.37;;
7150;SDS011;3617;48.836;9.172;2022-07-29T03:55:15;8.17;;;6.40;;
7150;SDS011;3617;48.836;9.172;2022-07-29T03:57:41;8.27;;;5.80;;
7150;SDS011;3617;48.836;9.172;2022-07-29T04:00:08;7.67;;;5.90;;
7150;SDS011;3617;48.836;9.172;2022-07-29T04:02:34;7.97;;;6.87;;
7150;SDS011;3617;48.836;9.172;2022-07-29T04:05:01;7.60;;;6.63;;
7150;SDS011;3617;48.836;9.172;2022-07-29T04:07:27;8.63;;;6.77;;
7150;SDS011;3617;48.836;9.172;2022-07-29T04:09:54;7.33;;;6.57;;
7150;SDS011;3617;48.836;9.172;2022-07-29T04:12:20;8.53;;;6.43;;
7150;SDS011;3617;48.836;9.172;2022-07-29T04:14:46;8.43;;;6.13;;
7150;SDS011;3617;48.836;9.172;2022-07-29T04:17:12;7.90;;;6.70;;
7150;SDS011;3617;48.836;9.172;2022-07-29T04:19:38;7.23;;;5.90;;
7150;SDS011;3617;48.836;9.172;2022-07-29T04:22:04;7.43;;;6.37;;
7150;SDS011;3617;48.836;9.172;2022-07-29T04:24:30;7.70;;;5.97;;
7150;SDS011;3617;48.836;9.172;2022-07-29T04:26:56;11.27;;;6.70;;
7150;SDS011;3617;48.836;9.172;2022-07-29T04:29:22;8.20;;;6.47;;
7150;SDS011;3617;48.836;9.172;2022-07-29T04:31:48;6.63;;;5.90;;
7150;SDS011;3617;48.836;9.172;2022-07-29T04:34:14;9.57;;;6.97;;
7150;SDS011;3617;48.836;9.172;2022-07-29T04:36:40;9.70;;;6.37;;
7150;SDS011;3617;48.836;9.172;2022-07-29T04:39:06;7.80;;;6.70;;
7150;SDS011;3617;48.836;9.172;2022-07-29T04:41:32;9.03;;;6.37;;
7150;SDS011;3617;48.836;9.172;2022-07-29T04:43:58;8.87;;;6.53;;
7150;SDS011;3617;48.836;9.172;2022-07-29T04:46:25;8.53;;;6.07;;
7150;SDS011;3617;48.836;9.172;2022-07-29T04:48:51;6.67;;;5.70;;
7150;SDS011;3617;48.836;9.172;2022-07-29T04:51:17;8.03;;;6.50;;
7150;SDS011;3617;48.836;9.172;2022-07-29T04:53:43;6.80;;;6.20;;
7150;SDS011;3617;48.836;9.172;2022-07-29T04:56:10;7.00;;;6.30;;
7150;SDS011;3617;48.836;9.172;2022-07-29T04:58:36;7.13;;;6.40;;
7150;SDS011;3617;48.836;9.172;2022-07-29T05:01:02;7.67;;;6.33;;
7150;SDS011;3617;48.836;9.172;2022-07-29T05:03:28;8.93;;;6.50;;
7150;SDS011;3617;48.836;9.172;2022-07-29T05:05:54;6.67;;;5.97;;
7150;SDS011;3617;48.836;9.172;2022-07-29T05:08:20;7.60;;;6.30;;
7150;SDS011;3617;48.836;9.172;2022-07-29T05:10:46;8.37;;;5.63;;
7150;SDS011;3617;48.836;9.172;2022-07-29T05:13:12;7.97;;;5.97;;
7150;SDS011;3617;48.836;9.172;2022-07-29T05:15:38;7.37;;;5.83;;
7150;SDS011;3617;48.836;9.172;2022-07-29T05:18:05;8.17;;;6.20;;
7150;SDS011;3617;48.836;9.172;2022-07-29T05:20:31;6.80;;;5.67;;
7150;SDS011;3617;48.836;9.172;2022-07-29T05:22:58;7.37;;;5.20;;
7150;SDS011;3617;48.836;9.172;2022-07-29T05:25:25;6.60;;;5.15;;
7150;SDS011;3617;48.836;9.172;2022-07-29T05:27:51;5.10;;;4.55;;
7150;SDS011;3617;48.836;9.172;2022-07-29T05:30:17;5.07;;;4.40;;
7150;SDS011;3617;48.836;9.172;2022-07-29T05:32:43;6.63;;;4.75;;
7150;SDS011;3617;48.836;9.172;2022-07-29T05:35:10;5.45;;;4.78;;
7150;SDS011;3617;48.836;9.172;2022-07-29T05:37:36;5.80;;;4.70;;
7150;SDS011;3617;48.836;9.172;2022-07-29T05:40:02;4.50;;;4.10;;
7150;SDS011;3617;48.836;9.172;2022-07-29T05:42:29;4.50;;;3.70;;
7150;SDS011;3617;48.836;9.172;2022-07-29T05:44:55;3.60;;;2.58;;
7150;SDS011;3617;48.836;9.172;2022-07-29T05:47:21;2.40;;;2.20;;
7150;SDS011;3617;48.836;9.172;2022-07-29T05:49:47;2.75;;;2.35;;
7150;SDS011;3617;48.836;9.172;2022-07-29T05:52:14;2.35;;;2.13;;
7150;SDS011;3617;48.836;9.172;2022-07-29T05:54:40;2.20;;;1.90;;
7150;SDS011;3617;48.836;9.172;2022-07-29T05:57:06;2.88;;;2.40;;
7150;SDS011;3617;48.836;9.172;2022-07-29T05:59:35;2.95;;;2.22;;
7150;SDS011;3617;48.836;9.172;2022-07-29T06:02:02;2.20;;;2.00;;
7150;SDS011;3617;48.836;9.172;2022-07-29T06:04:29;2.72;;;2.15;;
7150;SDS011;3617;48.836;9.172;2022-07-29T06:06:55;4.65;;;2.60;;
7150;SDS011;3617;48.836;9.172;2022-07-29T06:09:21;2.50;;;2.20;;
7150;SDS011;3617;48.836;9.172;2022-07-29T06:11:47;4.65;;;2.20;;
7150;SDS011;3617;48.836;9.172;2022-07-29T06:14:13;3.50;;;2.33;;
7150;SDS011;3617;48.836;9.172;2022-07-29T06:16:39;3.38;;;2.47;;
7150;SDS011;3617;48.836;9.172;2022-07-29T06:19:05;3.38;;;2.60;;
7150;SDS011;3617;48.836;9.172;2022-07-29T06:21:31;2.85;;;2.20;;
7150;SDS011;3617;48.836;9.172;2022-07-29T06:23:58;2.60;;;2.40;;
7150;SDS011;3617;48.836;9.172;2022-07-29T06:26:24;3.92;;;2.17;;
7150;SDS011;3617;48.836;9.172;2022-07-29T06:28:50;2.47;;;2.28;;
7150;SDS011;3617;48.836;9.172;2022-07-29T06:31:16;2.50;;;2.30;;
7150;SDS011;3617;48.836;9.172;2022-07-29T06:33:42;3.10;;;2.40;;
7150;SDS011;3617;48.836;9.172;2022-07-29T06:36:08;2.97;;;2.22;;
7150;SDS011;3617;48.836;9.172;2022-07-29T06:38:34;3.22;;;2.00;;
7150;SDS011;3617;48.836;9.172;2022-07-29T06:41:01;2.42;;;2.20;;
7150;SDS011;3617;48.836;9.172;2022-07-29T06:43:34;2.55;;;2.35;;
7150;SDS011;3617;48.836;9.172;2022-07-29T06:46:03;4.25;;;2.50;;
7150;SDS011;3617;48.836;9.172;2022-07-29T06:48:29;3.45;;;2.33;;
7150;SDS011;3617;48.836;9.172;2022-07-29T06:50:56;2.50;;;2.30;;
7150;SDS011;3617;48.836;9.172;2022-07-29T06:53:22;2.55;;;2.35;;
7150;SDS011;3617;48.836;9.172;2022-07-29T06:55:48;4.10;;;2.30;;
7150;SDS011;3617;48.836;9.172;2022-07-29T06:58:14;3.80;;;2.70;;
7150;SDS011;3617;48.836;9.172;2022-07-29T07:00:42;4.88;;;2.67;;
7150;SDS011;3617;48.836;9.172;2022-07-29T07:03:09;3.05;;;2.60;;
7150;SDS011;3617;48.836;9.172;2022-07-29T07:05:35;4.03;;;2.35;;
7150;SDS011;3617;48.836;9.172;2022-07-29T07:08:01;3.10;;;2.60;;
7150;SDS011;3617;48.836;9.172;2022-07-29T07:10:27;3.10;;;2.42;;
7150;SDS011;3617;48.836;9.172;2022-07-29T07:12:53;3.42;;;2.50;;
7150;SDS011;3617;48.836;9.172;2022-07-29T07:15:19;2.67;;;2.38;;
7150;SDS011;3617;48.836;9.172;2022-07-29T07:17:47;4.78;;;3.03;;
7150;SDS011;3617;48.836;9.172;2022-07-29T07:20:13;3.65;;;2.60;;
7150;SDS011;3617;48.836;9.172;2022-07-29T07:22:39;4.35;;;2.90;;
7150;SDS011;3617;48.836;9.172;2022-07-29T07:25:05;3.20;;;2.90;;
7150;SDS011;3617;48.836;9.172;2022-07-29T07:27:32;2.80;;;2.47;;
7150;SDS011;3617;48.836;9.172;2022-07-29T07:29:58;2.60;;;2.40;;
7150;SDS011;3617;48.836;9.172;2022-07-29T07:32:24;2.65;;;2.45;;
7150;SDS011;3617;48.836;9.172;2022-07-29T07:34:50;3.38;;;2.75;;
7150;SDS011;3617;48.836;9.172;2022-07-29T07:37:16;4.88;;;2.70;;
7150;SDS011;3617;48.836;9.172;2022-07-29T07:39:44;3.50;;;2.78;;
7150;SDS011;3617;48.836;9.172;2022-07-29T07:42:10;4.13;;;2.63;;
7150;SDS011;3617;48.836;9.172;2022-07-29T07:44:37;2.90;;;2.70;;
7150;SDS011;3617;48.836;9.172;2022-07-29T07:47:04;2.72;;;2.53;;
7150;SDS011;3617;48.836;9.172;2022-07-29T07:49:30;3.03;;;2.72;;
7150;SDS011;3617;48.836;9.172;2022-07-29T07:51:56;3.95;;;2.75;;
7150;SDS011;3617;48.836;9.172;2022-07-29T07:54:22;2.60;;;2.40;;
7150;SDS011;3617;48.836;9.172;2022-07-29T07:56:48;2.80;;;2.50;;
7150;SDS011;3617;48.836;9.172;2022-07-29T07:59:14;4.32;;;2.83;;
7150;SDS011;3617;48.836;9.172;2022-07-29T08:01:40;4.18;;;2.92;;
7150;SDS011;3617;48.836;9.172;2022-07-29T08:04:07;3.10;;;2.78;;
7150;SDS011;3617;48.836;9.172;2022-07-29T08:06:33;3.22;;;2.65;;
7150;SDS011;3617;48.836;9.172;2022-07-29T08:09:03;3.97;;;2.78;;
7150;SDS011;3617;48.836;9.172;2022-07-29T08:11:29;4.05;;;2.90;;
7150;SDS011;3617;48.836;9.172;2022-07-29T08:13:56;4.00;;;3.22;;
7150;SDS011;3617;48.836;9.172;2022-07-29T08:16:22;5.45;;;2.92;;
7150;SDS011;3617;48.836;9.172;2022-07-29T08:18:49;3.47;;;3.13;;
7150;SDS011;3617;48.836;9.172;2022-07-29T08:21:15;2.97;;;2.65;;
7150;SDS011;3617;48.836;9.172;2022-07-29T08:23:43;3.38;;;3.08;;
7150;SDS011;3617;48.836;9.172;2022-07-29T08:26:15;3.05;;;2.75;;
7150;SDS011;3617;48.836;9.172;2022-07-29T08:28:42;2.97;;;2.78;;
7150;SDS011;3617;48.836;9.172;2022-07-29T08:31:14;3.00;;;2.58;;
7150;SDS011;3617;48.836;9.172;2022-07-29T08:33:41;3.30;;;3.00;;
7150;SDS011;3617;48.836;9.172;2022-07-29T08:36:07;2.95;;;2.72;;
7150;SDS011;3617;48.836;9.172;2022-07-29T08:38:33;3.20;;;2.80;;
7150;SDS011;3617;48.836;9.172;2022-07-29T08:41:00;3.10;;;2.80;;
7150;SDS011;3617;48.836;9.172;2022-07-29T08:43:29;3.35;;;2.90;;
7150;SDS011;3617;48.836;9.172;2022-07-29T08:45:57;3.50;;;3.17;;
7150;SDS011;3617;48.836;9.172;2022-07-29T08:48:23;3.78;;;3.10;;
7150;SDS011;3617;48.836;9.172;2022-07-29T08:50:53;2.92;;;2.72;;
7150;SDS011;3617;48.836;9.172;2022-07-29T08:53:20;3.40;;;3.10;;
7150;SDS011;3617;48.836;9.172;2022-07-29T08:55:49;4.53;;;2.80;;
7150;SDS011;3617;48.836;9.172;2022-07-29T08:58:15;3.65;;;3.08;;
7150;SDS011;3617;48.836;9.172;2022-07-29T09:00:44;5.38;;;3.10;;
7150;SDS011;3617;48.836;9.172;2022-07-29T09:03:16;3.42;;;3.13;;
7150;SDS011;3617;48.836;9.172;2022-07-29T09:05:44;3.22;;;2.90;;
7150;SDS011;3617;48.836;9.172;2022-07-29T09:08:11;3.40;;;3.10;;
7150;SDS011;3617;48.836;9.172;2022-07-29T09:10:37;3.40;;;2.97;;
7150;SDS011;3617;48.836;9.172;2022-07-29T09:13:03;3.50;;;2.90;;
7150;SDS011;3617;48.836;9.172;2022-07-29T09:15:29;3.88;;;3.10;;
7150;SDS011;3617;48.836;9.172;2022-07-29T09:17:56;3.60;;;3.28;;
7150;SDS011;3617;48.836;9.172;2022-07-29T09:20:23;3.53;;;3.00;;
7150;SDS011;3617;48.836;9.172;2022-07-29T09:22:50;3.83;;;3.38;;
7150;SDS011;3617;48.836;9.172;2022-07-29T09:25:36;3.70;;;3.15;;
7150;SDS011;3617;48.836;9.172;2022-07-29T09:28:15;5.00;;;3.20;;
7150;SDS011;3617;48.836;9.172;2022-07-29T09:30:54;3.35;;;3.05;;
7150;SDS011;3617;48.836;9.172;2022-07-29T09:33:22;4.68;;;3.30;;
7150;SDS011;3617;48.836;9.172;2022-07-29T09:36:05;3.67;;;3.38;;
7150;SDS011;3617;48.836;9.172;2022-07-29T09:38:31;3.15;;;2.83;;
7150;SDS011;3617;48.836;9.172;2022-07-29T09:40:59;6.00;;;3.40;;
7150;SDS011;3617;48.836;9.172;2022-07-29T09:43:26;3.40;;;3.08;;
7150;SDS011;3617;48.836;9.172;2022-07-29T09:45:52;6.05;;;3.10;;
7150;SDS011;3617;48.836;9.172;2022-07-29T09:48:22;3.50;;;3.20;;
7150;SDS011;3617;48.836;9.172;2022-07-29T09:50:49;3.72;;;3.35;;
7150;SDS011;3617;48.836;9.172;2022-07-29T09:56:10;4.72;;;3.30;;
7150;SDS011;3617;48.836;9.172;2022-07-29T09:58:36;3.67;;;3.20;;
7150;SDS011;3617;48.836;9.172;2022-07-29T10:01:02;3.83;;;3.10;;
7150;SDS011;3617;48.836;9.172;2022-07-29T10:03:28;3.97;;;3.55;;
7150;SDS011;3617;48.836;9.172;2022-07-29T10:06:08;4.38;;;3.40;;
7150;SDS011;3617;48.836;9.172;2022-07-29T10:08:34;4.43;;;3.67;;
7150;SDS011;3617;48.836;9.172;2022-07-29T10:11:13;4.97;;;3.58;;
7150;SDS011;3617;48.836;9.172;2022-07-29T10:13:40;5.05;;;4.10;;
7150;SDS011;3617;48.836;9.172;2022-07-29T10:16:06;4.13;;;3.83;;
7150;SDS011;3617;48.836;9.172;2022-07-29T10:18:33;3.67;;;3.35;;
7150;SDS011;3617;48.836;9.172;2022-07-29T10:20:59;3.92;;;3.58;;
7150;SDS011;3617;48.836;9.172;2022-07-29T10:23:26;6.28;;;3.95;;
7150;SDS011;3617;48.836;9.172;2022-07-29T10:25:52;5.45;;;3.50;;
7150;SDS011;3617;48.836;9.172;2022-07-29T10:28:18;3.67;;;3.38;;
7150;SDS011;3617;48.836;9.172;2022-07-29T10:30:44;4.10;;;3.55;;
7150;SDS011;3617;48.836;9.172;2022-07-29T10:33:30;5.03;;;3.30;;
7150;SDS011;3617;48.836;9.172;2022-07-29T10:38:55;4.82;;;3.67;;
7150;SDS011;3617;48.836;9.172;2022-07-29T10:41:31;4.63;;;3.63;;
7150;SDS011;3617;48.836;9.172;2022-07-29T10:44:09;4.35;;;3.75;;
7150;SDS011;3617;48.836;9.172;2022-07-29T10:46:39;4.07;;;3.70;;
7150;SDS011;3617;48.836;9.172;2022-07-29T10:49:17;6.25;;;3.80;;
7150;SDS011;3617;48.836;9.172;2022-07-29T10:57:10;4.45;;;3.80;;
7150;SDS011;3617;48.836;9.172;2022-07-29T10:59:37;4.57;;;3.92;;
7150;SDS011;3617;48.836;9.172;2022-07-29T11:02:09;8.30;;;4.03;;
7150;SDS011;3617;48.836;9.172;2022-07-29T11:07:15;5.18;;;4.45;;
7150;SDS011;3617;48.836;9.172;2022-07-29T11:09:41;5.65;;;4.15;;
7150;SDS011;3617;48.836;9.172;2022-07-29T11:12:45;6.85;;;4.55;;
7150;SDS011;3617;48.836;9.172;2022-07-29T11:14:59;5.07;;;4.30;;
7150;SDS011;3617;48.836;9.172;2022-07-29T11:17:27;5.38;;;3.90;;
7150;SDS011;3617;48.836;9.172;2022-07-29T11:22:38;6.30;;;4.60;;
7150;SDS011;3617;48.836;9.172;2022-07-29T11:25:17;4.85;;;4.20;;
7150;SDS011;3617;48.836;9.172;2022-07-29T11:27:44;4.85;;;4.38;;
7150;SDS011;3617;48.836;9.172;2022-07-29T11:30:10;5.22;;;4.55;;
7150;SDS011;3617;48.836;9.172;2022-07-29T11:32:38;6.80;;;5.10;;
7150;SDS011;3617;48.836;9.172;2022-07-29T11:35:10;7.28;;;5.22;;
7150;SDS011;3617;48.836;9.172;2022-07-29T11:37:36;8.32;;;5.45;;
7150;SDS011;3617;48.836;9.172;2022-07-29T11:40:08;5.93;;;5.30;;
7150;SDS011;3617;48.836;9.172;2022-07-29T11:45:10;5.30;;;4.63;;
7150;SDS011;3617;48.836;9.172;2022-07-29T11:47:39;8.80;;;4.65;;
7150;SDS011;3617;48.836;9.172;2022-07-29T11:50:07;7.85;;;4.47;;
7150;SDS011;3617;48.836;9.172;2022-07-29T11:52:40;7.35;;;5.00;;
7150;SDS011;3617;48.836;9.172;2022-07-29T11:55:22;7.28;;;4.60;;
7150;SDS011;3617;48.836;9.172;2022-07-29T11:57:50;6.25;;;4.40;;
7150;SDS011;3617;48.836;9.172;2022-07-29T12:02:59;6.05;;;4.90;;
7150;SDS011;3617;48.836;9.172;2022-07-29T12:08:04;5.30;;;4.75;;
7150;SDS011;3617;48.836;9.172;2022-07-29T12:10:31;5.57;;;4.80;;
7150;SDS011;3617;48.836;9.172;2022-07-29T12:12:57;4.90;;;4.45;;
7150;SDS011;3617;48.836;9.172;2022-07-29T12:15:23;4.90;;;4.40;;
7150;SDS011;3617;48.836;9.172;2022-07-29T12:17:50;7.32;;;4.60;;
7150;SDS011;3617;48.836;9.172;2022-07-29T12:20:49;4.78;;;4.25;;
7150;SDS011;3617;48.836;9.172;2022-07-29T12:23:09;5.30;;;4.80;;
7150;SDS011;3617;48.836;9.172;2022-07-29T12:25:37;5.60;;;4.90;;
7150;SDS011;3617;48.836;9.172;2022-07-29T12:28:04;6.15;;;5.13;;
7150;SDS011;3617;48.836;9.172;2022-07-29T12:30:34;5.45;;;4.95;;
7150;SDS011;3617;48.836;9.172;2022-07-29T12:33:09;6.10;;;4.95;;
7150;SDS011;3617;48.836;9.172;2022-07-29T12:35:35;7.75;;;4.30;;
7150;SDS011;3617;48.836;9.172;2022-07-29T12:38:01;6.05;;;4.50;;
7150;SDS011;3617;48.836;9.172;2022-07-29T12:40:28;6.63;;;4.68;;
7150;SDS011;3617;48.836;9.172;2022-07-29T12:43:10;6.47;;;4.75;;
7150;SDS011;3617;48.836;9.172;2022-07-29T12:45:37;4.95;;;4.45;;
7150;SDS011;3617;48.836;9.172;2022-07-29T12:48:04;4.90;;;4.22;;
7150;SDS011;3617;48.836;9.172;2022-07-29T12:50:30;6.05;;;4.93;;
7150;SDS011;3617;48.836;9.172;2022-07-29T12:53:07;4.50;;;3.83;;
7150;SDS011;3617;48.836;9.172;2022-07-29T12:55:47;4.95;;;4.38;;
7150;SDS011;3617;48.836;9.172;2022-07-29T12:58:25;5.07;;;4.05;;
7150;SDS011;3617;48.836;9.172;2022-07-29T13:06:31;4.60;;;4.15;;
7150;SDS011;3617;48.836;9.172;2022-07-29T13:08:58;3.88;;;3.42;;
7150;SDS011;3617;48.836;9.172;2022-07-29T13:11:29;3.40;;;3.10;;
7150;SDS011;3617;48.836;9.172;2022-07-29T13:13:55;3.90;;;3.45;;
7150;SDS011;3617;48.836;9.172;2022-07-29T13:16:21;5.88;;;3.60;;
7150;SDS011;3617;48.836;9.172;2022-07-29T13:18:47;4.63;;;3.90;;
7150;SDS011;3617;48.836;9.172;2022-07-29T13:21:14;3.88;;;3.40;;
7150;SDS011;3617;48.836;9.172;2022-07-29T13:23:40;5.18;;;3.42;;
7150;SDS011;3617;48.836;9.172;2022-07-29T13:26:09;5.85;;;3.60;;
7150;SDS011;3617;48.836;9.172;2022-07-29T13:28:36;4.82;;;3.60;;
7150;SDS011;3617;48.836;9.172;2022-07-29T13:31:02;3.88;;;3.38;;
7150;SDS011;3617;48.836;9.172;2022-07-29T13:33:29;3.80;;;3.40;;
7150;SDS011;3617;48.836;9.172;2022-07-29T13:35:55;5.47;;;3.40;;
7150;SDS011;3617;48.836;9.172;2022-07-29T13:38:21;5.28;;;3.58;;
7150;SDS011;3617;48.836;9.172;2022-07-29T13:40:47;3.45;;;3.15;;
7150;SDS011;3617;48.836;9.172;2022-07-29T13:43:13;4.40;;;3.25;;
7150;SDS011;3617;48.836;9.172;2022-07-29T13:45:39;4.35;;;3.78;;
7150;SDS011;3617;48.836;9.172;2022-07-29T13:48:06;4.20;;;3.30;;
7150;SDS011;3617;48.836;9.172;2022-07-29T13:50:32;4.28;;;3.88;;
7150;SDS011;3617;48.836;9.172;2022-07-29T13:52:58;4.45;;;3.40;;
7150;SDS011;3617;48.836;9.172;2022-07-29T13:55:24;4.18;;;3.55;;
7150;SDS011;3617;48.836;9.172;2022-07-29T13:57:50;4.57;;;3.72;;
7150;SDS011;3617;48.836;9.172;2022-07-29T14:00:16;5.47;;;4.07;;
7150;SDS011;3617;48.836;9.172;2022-07-29T14:02:43;5.60;;;3.70;;
7150;SDS011;3617;48.836;9.172;2022-07-29T14:05:09;5.47;;;3.90;;
7150;SDS011;3617;48.836;9.172;2022-07-29T14:07:36;5.22;;;3.63;;
7150;SDS011;3617;48.836;9.172;2022-07-29T14:10:03;4.10;;;3.70;;
7150;SDS011;3617;48.836;9.172;2022-07-29T14:12:30;5.05;;;3.65;;
7150;SDS011;3617;48.836;9.172;2022-07-29T14:14:56;4.10;;;3.70;;
7150;SDS011;3617;48.836;9.172;2022-07-29T14:17:22;5.82;;;3.72;;
7150;SDS011;3617;48.836;9.172;2022-07-29T14:19:48;4.07;;;3.67;;
7150;SDS011;3617;48.836;9.172;2022-07-29T14:22:14;6.45;;;3.75;;
7150;SDS011;3617;48.836;9.172;2022-07-29T14:24:40;4.25;;;3.78;;
7150;SDS011;3617;48.836;9.172;2022-07-29T14:27:07;5.07;;;4.00;;
7150;SDS011;3617;48.836;9.172;2022-07-29T14:29:33;9.25;;;4.50;;
7150;SDS011;3617;48.836;9.172;2022-07-29T14:31:59;9.75;;;4.25;;
7150;SDS011;3617;48.836;9.172;2022-07-29T14:34:25;4.00;;;3.60;;
7150;SDS011;3617;48.836;9.172;2022-07-29T14:36:51;6.35;;;3.92;;
7150;SDS011;3617;48.836;9.172;2022-07-29T14:39:20;5.22;;;4.20;;
7150;SDS011;3617;48.836;9.172;2022-07-29T14:41:46;5.63;;;3.90;;
7150;SDS011;3617;48.836;9.172;2022-07-29T14:44:12;4.35;;;3.70;;
7150;SDS011;3617;48.836;9.172;2022-07-29T14:46:38;4.80;;;3.72;;
7150;SDS011;3617;48.836;9.172;2022-07-29T14:49:04;5.43;;;4.07;;
7150;SDS011;3617;48.836;9.172;2022-07-29T14:51:30;5.05;;;3.90;;
7150;SDS011;3617;48.836;9.172;2022-07-29T14:53:56;4.97;;;3.95;;
7150;SDS011;3617;48.836;9.172;2022-07-29T14:56:22;3.83;;;3.47;;
7150;SDS011;3617;48.836;9.172;2022-07-29T14:58:48;4.03;;;3.13;;
7150;SDS011;3617;48.836;9.172;2022-07-29T15:01:14;5.25;;;4.25;;
7150;SDS011;3617;48.836;9.172;2022-07-29T15:03:40;4.53;;;3.90;;
7150;SDS011;3617;48.836;9.172;2022-07-29T15:06:06;6.28;;;3.45;;
7150;SDS011;3617;48.836;9.172;2022-07-29T15:08:32;5.25;;;3.95;;
7150;SDS011;3617;48.836;9.172;2022-07-29T15:10:58;5.38;;;3.80;;
7150;SDS011;3617;48.836;9.172;2022-07-29T15:13:25;5.55;;;3.63;;
7150;SDS011;3617;48.836;9.172;2022-07-29T15:15:51;5.35;;;3.63;;
7150;SDS011;3617;48.836;9.172;2022-07-29T15:18:17;4.18;;;3.78;;
7150;SDS011;3617;48.836;9.172;2022-07-29T15:20:44;6.75;;;3.92;;
7150;SDS011;3617;48.836;9.172;2022-07-29T15:23:11;4.85;;;4.05;;
7150;SDS011;3617;48.836;9.172;2022-07-29T15:25:37;4.88;;;4.10;;
7150;SDS011;3617;48.836;9.172;2022-07-29T15:28:03;4.70;;;4.15;;
7150;SDS011;3617;48.836;9.172;2022-07-29T15:30:32;5.45;;;4.38;;
7150;SDS011;3617;48.836;9.172;2022-07-29T15:32:58;4.55;;;4.10;;
7150;SDS011;3617;48.836;9.172;2022-07-29T15:35:24;6.50;;;4.70;;
7150;SDS011;3617;48.836;9.172;2022-07-29T15:37:50;5.28;;;4.25;;
7150;SDS011;3617;48.836;9.172;2022-07-29T15:40:16;4.72;;;4.20;;
7150;SDS011;3617;48.836;9.172;2022-07-29T15:42:42;8.50;;;4.93;;
7150;SDS011;3617;48.836;9.172;2022-07-29T15:45:08;9.65;;;4.13;;
7150;SDS011;3617;48.836;9.172;2022-07-29T15:47:35;5.10;;;4.53;;
7150;SDS011;3617;48.836;9.172;2022-07-29T15:50:01;9.40;;;4.15;;
7150;SDS011;3617;48.836;9.172;2022-07-29T15:52:27;4.63;;;4.00;;
7150;SDS011;3617;48.836;9.172;2022-07-29T15:54:53;6.15;;;4.50;;
7150;SDS011;3617;48.836;9.172;2022-07-29T15:57:20;4.53;;;4.07;;